• Join FlightAware (Why Join?)
  • Login
  • US Flag 
02:56AM EDT


 

Airport Tracker/Info


-or-


 

Live Flight TrackerFlight Track Log ✈ EJA361 ✈ 19-Jun-2013 ✈ KLGA - KBOS

Flight Track Log - Related Links

Times and Time Zones

All times are in EDT time to prevent confusion due to time zone crossing. See the EJA361 flight status page for this flight to view local times or setup timezone preferences in your user account.

Time Position Orientation Groundspeed Altitude Reporting Facility
EDT Latitude Longitude Course Direction KTS MPH feet Rate Location/Type
02:09PM 40.7833 -73.8667 252° West 187 215 4,000  Level New York TRACON
02:11PM 40.7500 -74.0000 252° West 199 229 4,000  Level New York TRACON
02:12PM 40.7333 -74.0667 252° West 198 228 4,000  Level New York TRACON
02:13PM 40.6833 -74.0833 194° South 203 234 4,000 -360 Level New York TRACON
02:15PM 40.6000 -74.0333 156° South 185 213 3,000 -540 Descending New York TRACON
02:16PM 40.6333 -73.9833 49° Northeast 176 203 2,500 -300 Descending New York TRACON
02:17PM 40.6667 -73.9500 37° Northeast 178 205 2,500  Level New York TRACON
02:18PM 40.7167 -73.9333 14° North 174 200 2,500 -600 Level New York TRACON
02:19PM 40.7333 -73.8833 66° East 162 186 1,300 -900 Descending New York TRACON
02:20PM 40.7500 -73.8333 66° East 138 159 700 -600 Descending New York TRACON
02:22PM 40.9079 -73.7003 27° Northeast  Level FlightAware Approximate
02:29PM 41.3734 -73.0724 82° East  Level FlightAware Approximate
02:30PM 41.3876 -72.9428 82° East  Level FlightAware Approximate
02:31PM 41.4017 -72.8131 82° East  Level FlightAware Approximate
02:32PM 41.4156 -72.6833 82° East  Level FlightAware Approximate
02:33PM 41.4294 -72.5535 82° East  Level FlightAware Approximate
02:34PM 41.4432 -72.4237 82° East  Level FlightAware Approximate
02:35PM 41.4569 -72.2938 82° East  Level FlightAware Approximate
02:36PM 41.4792 -72.1675 63° Northeast  Level FlightAware Approximate
02:37PM 41.5241 -72.0508 63° Northeast  Level FlightAware Approximate
02:38PM 41.5669 -71.9326 66° East  Level FlightAware Approximate
02:39PM 41.6061 -71.8121 69° East  Level FlightAware Approximate
02:40PM 41.6412 -71.6892 69° East  Level FlightAware Approximate
02:41PM 41.6759 -71.5661 70° East  Level FlightAware Approximate
02:42PM 41.7097 -71.4424 70° East  Level FlightAware Approximate
02:43PM 41.7573 -71.3280 66° East  Level FlightAware Approximate
02:44PM 41.8006 -71.2097 63° Northeast  Level FlightAware Approximate
02:45PM 41.8621 -71.1126 14° North  Level FlightAware Approximate
02:46PM 41.9590 -71.0970 14° North  Level FlightAware Approximate
02:47PM 42.0544 -71.0652 14° North  Level FlightAware Approximate
02:48PM 42.1508 -71.0415 10° North  Level FlightAware Approximate
02:49PM 42.2477 -71.0214 10° North  Level FlightAware Approximate
02:50PM 42.3446 -71.0000 North  Level FlightAware Approximate
02:51PM 42.3500 -71.0000 North  Level FlightAware Approximate
02:52PM 42.3630 -71.0064 North  Level Estimated
02:53PM 42.3630 -71.0064 North  Level Estimated
02:54PM 42.3630 -71.0064 North  Level Estimated
02:55PM 42.3630 -71.0064 North  Level Estimated